Time;durP1;ratioP1;P1;durP2;ratioP2;P2;SDS_P1;SDS_P2;PMS_P1;PMS_P2;Temp;Humidity;BMP_temperature;BMP_pressure;BME280_temperature;BME280_humidity;BME280_pressure;Samples;Min_cycle;Max_cycle;Signal;HPM_P1;HPM_P2
2021/09/09 00:01:43;;;;;;;12.48;9.25;;;;;;;19.76;55.06;101441.56;6261787;28;20219;-48
2021/09/09 00:05:07;;;;;;;9.10;8.18;;;;;;;19.74;55.09;101430.19;6253365;28;20224;-49
2021/09/09 00:08:29;;;;;;;9.75;8.75;;;;;;;19.65;55.62;101426.06;6253750;28;20243;-49
2021/09/09 00:11:50;;;;;;;10.38;9.48;;;;;;;19.74;55.29;101430.19;6265211;28;20228;-51
2021/09/09 00:15:12;;;;;;;11.48;10.48;;;;;;;19.61;55.75;101428.88;6250080;28;20602;-50
2021/09/09 00:18:33;;;;;;;9.63;8.85;;;;;;;19.55;55.88;101426.47;6242623;28;20232;-46
2021/09/09 00:21:56;;;;;;;10.35;9.45;;;;;;;19.43;56.67;101431.28;6268113;28;20522;-47
2021/09/09 00:25:17;;;;;;;11.23;10.13;;;;;;;19.46;56.44;101425.91;6262541;28;20525;-51
2021/09/09 00:28:39;;;;;;;9.90;9.00;;;;;;;19.23;57.03;101423.19;6250945;28;20260;-52
2021/09/09 00:32:00;;;;;;;10.27;9.43;;;;;;;19.11;57.66;101415.72;6250447;28;20227;-51
2021/09/09 00:35:23;;;;;;;11.68;8.77;;;;;;;19.48;56.22;101413.50;6254138;28;20265;-53
2021/09/09 00:38:45;;;;;;;11.07;9.90;;;;;;;19.21;57.50;101414.47;6250433;28;20247;-48
2021/09/09 00:42:06;;;;;;;9.38;8.57;;;;;;;19.21;57.50;101409.19;6260832;28;20235;-47
2021/09/09 00:45:27;;;;;;;9.30;8.60;;;;;;;19.40;56.56;101404.97;6269554;28;20220;-47
2021/09/09 00:48:48;;;;;;;10.68;9.65;;;;;;;19.07;58.10;101413.19;6247748;28;20242;-47
2021/09/09 00:52:10;;;;;;;9.40;8.48;;;;;;;19.21;57.43;101409.19;6255837;28;20239;-51
2021/09/09 00:55:33;;;;;;;10.98;9.20;;;;;;;19.24;57.46;101411.75;6262167;28;20232;-46
2021/09/09 00:58:55;;;;;;;9.40;8.50;;;;;;;19.47;56.61;101401.19;6243042;28;20239;-51
2021/09/09 01:02:16;;;;;;;9.95;9.07;;;;;;;19.37;56.94;101401.59;6241994;28;20231;-50
2021/09/09 01:05:38;;;;;;;10.65;8.88;;;;;;;19.41;56.70;101401.44;6248536;28;20534;-48
2021/09/09 01:08:59;;;;;;;9.77;8.82;;;;;;;18.97;58.42;101392.47;6252578;28;20240;-52
2021/09/09 01:12:21;;;;;;;11.15;10.15;;;;;;;18.91;58.68;101393.53;6252753;28;20243;-47
2021/09/09 01:15:44;;;;;;;9.10;8.02;;;;;;;18.83;58.72;101390.31;6260616;28;20231;-53
2021/09/09 01:19:06;;;;;;;10.77;9.88;;;;;;;18.84;59.14;101392.91;6248346;28;20223;-48
2021/09/09 01:22:27;;;;;;;9.75;8.75;;;;;;;19.19;57.72;101401.34;6250594;28;20231;-44
2021/09/09 01:25:49;;;;;;;11.57;10.13;;;;;;;18.97;58.52;101392.47;6258865;28;20299;-48
2021/09/09 01:29:10;;;;;;;13.10;11.65;;;;;;;18.82;59.41;101385.94;6248242;28;21081;-51
2021/09/09 01:32:31;;;;;;;10.18;9.20;;;;;;;19.13;58.12;101390.13;6250152;28;22286;-49
2021/09/09 01:35:52;;;;;;;10.38;9.38;;;;;;;19.00;58.67;101393.22;6261707;28;20223;-53
2021/09/09 01:39:13;;;;;;;9.68;8.55;;;;;;;18.69;59.57;101390.75;6245202;28;20228;-48
2021/09/09 01:42:35;;;;;;;12.18;11.05;;;;;;;18.88;59.08;101396.28;6249504;28;20754;-50
2021/09/09 01:45:56;;;;;;;10.23;9.30;;;;;;;18.77;59.34;101390.50;6250494;28;20232;-46
2021/09/09 01:49:18;;;;;;;10.60;9.68;;;;;;;18.83;59.20;101387.66;6249366;28;20637;-50
2021/09/09 01:52:39;;;;;;;10.77;9.88;;;;;;;18.79;59.51;101386.88;6251123;28;20221;-52
2021/09/09 01:56:00;;;;;;;10.43;9.40;;;;;;;18.87;58.83;101384.00;6259459;28;20223;-46
2021/09/09 01:59:22;;;;;;;11.25;10.05;;;;;;;19.01;58.39;101384.38;6247498;28;20299;-53
2021/09/09 02:02:44;;;;;;;12.70;10.70;;;;;;;18.72;59.34;101377.44;6252026;28;20274;-50
2021/09/09 02:06:05;;;;;;;11.43;10.10;;;;;;;18.62;59.87;101383.94;6265873;28;20269;-50
2021/09/09 02:09:26;;;;;;;10.32;9.32;;;;;;;18.61;60.10;101377.81;6237949;28;20228;-49
2021/09/09 02:12:47;;;;;;;12.75;10.07;;;;;;;18.74;59.64;101377.38;6250014;28;20239;-49
2021/09/09 02:16:09;;;;;;;12.57;11.35;;;;;;;18.79;59.19;101376.31;6252937;28;20240;-48
2021/09/09 02:19:30;;;;;;;12.93;11.57;;;;;;;18.88;58.95;101377.78;6254417;28;20227;-50
2021/09/09 02:22:51;;;;;;;10.57;9.55;;;;;;;18.55;59.83;101377.13;6246135;28;20224;-53
2021/09/09 02:26:12;;;;;;;12.57;11.30;;;;;;;18.60;60.06;101376.06;6248920;28;20228;-51
2021/09/09 02:29:33;;;;;;;11.35;10.35;;;;;;;18.53;59.99;101369.28;6248211;28;20232;-46
2021/09/09 02:32:55;;;;;;;13.00;11.80;;;;;;;18.36;61.15;101368.97;6247396;28;20236;-47
2021/09/09 02:36:16;;;;;;;13.48;10.93;;;;;;;18.26;61.14;101360.50;6247265;28;20509;-48
2021/09/09 02:39:40;;;;;;;10.95;9.95;;;;;;;18.28;61.07;101356.94;6247371;28;20224;-45
2021/09/09 02:43:01;;;;;;;12.95;11.70;;;;;;;18.06;61.96;101356.72;6243031;28;20617;-48
2021/09/09 02:46:22;;;;;;;13.45;12.23;;;;;;;18.12;61.78;101349.56;6254884;28;20881;-48
2021/09/09 02:49:44;;;;;;;11.27;10.27;;;;;;;18.38;61.14;101353.97;6258904;28;20232;-45
2021/09/09 02:53:05;;;;;;;11.63;10.60;;;;;;;18.32;61.39;101344.50;6261169;28;20228;-46
2021/09/09 02:56:26;;;;;;;12.68;11.68;;;;;;;18.24;61.45;101347.41;6259782;28;20596;-50
2021/09/09 02:59:47;;;;;;;12.25;11.05;;;;;;;18.41;61.14;101343.31;6260562;28;20318;-45
2021/09/09 03:03:08;;;;;;;12.73;11.63;;;;;;;18.26;61.28;101332.38;6265910;28;20239;-47
2021/09/09 03:06:30;;;;;;;20.77;18.73;;;;;;;18.29;61.30;101329.63;6261494;28;20227;-46
2021/09/09 03:09:51;;;;;;;19.20;17.40;;;;;;;18.06;62.27;101338.28;6263469;28;20501;-49
2021/09/09 03:13:12;;;;;;;15.80;14.50;;;;;;;17.95;62.64;101329.00;6264955;28;20236;-48
2021/09/09 03:16:33;;;;;;;15.63;14.13;;;;;;;18.12;61.94;101318.78;6265626;28;20604;-48
2021/09/09 03:19:54;;;;;;;15.43;13.88;;;;;;;18.11;61.96;101322.34;6263204;28;20231;-46
2021/09/09 03:23:17;;;;;;;14.90;13.50;;;;;;;18.06;61.89;101318.97;6262964;28;20228;-49
2021/09/09 03:26:38;;;;;;;13.35;12.13;;;;;;;18.26;61.27;101310.41;6270096;28;20228;-48
2021/09/09 03:29:59;;;;;;;12.00;10.85;;;;;;;18.31;61.13;101305.84;6265923;28;20322;-53
2021/09/09 03:33:20;;;;;;;12.50;11.45;;;;;;;18.22;61.24;101307.03;6265954;28;20235;-48
2021/09/09 03:36:41;;;;;;;13.70;12.30;;;;;;;17.72;63.02;101304.22;6266078;28;20233;-52
2021/09/09 03:40:04;;;;;;;13.77;12.48;;;;;;;18.00;62.34;101295.47;6268653;28;20224;-52
2021/09/09 03:43:25;;;;;;;12.23;11.02;;;;;;;17.90;62.43;101294.91;6264304;28;20232;-47
2021/09/09 03:46:45;;;;;;;13.27;12.02;;;;;;;18.09;61.72;101292.53;6268075;28;21770;-50
2021/09/09 03:50:07;;;;;;;17.88;12.75;;;;;;;17.84;62.67;101287.19;6252199;28;20624;-47
2021/09/09 03:53:28;;;;;;;12.93;11.55;;;;;;;17.97;62.08;101293.81;6261402;28;20227;-47
2021/09/09 03:56:51;;;;;;;14.23;12.73;;;;;;;17.85;62.39;101294.19;6266617;28;20224;-52
2021/09/09 04:00:12;;;;;;;13.90;12.63;;;;;;;17.90;62.25;101285.22;6263880;28;20236;-50
2021/09/09 04:03:33;;;;;;;30.10;27.58;;;;;;;17.68;63.02;101273.59;6261110;28;20933;-48
2021/09/09 04:06:54;;;;;;;35.15;32.00;;;;;;;17.50;63.54;101280.31;6261204;28;20231;-48
2021/09/09 04:10:15;;;;;;;16.77;15.30;;;;;;;17.98;61.77;101284.97;6269313;28;20230;-50
2021/09/09 04:13:38;;;;;;;17.98;16.40;;;;;;;17.67;63.16;101277.16;6262653;28;20236;-49
2021/09/09 04:16:59;;;;;;;15.95;14.48;;;;;;;17.51;63.94;101277.63;6264523;28;20606;-49
2021/09/09 04:20:20;;;;;;;15.77;14.38;;;;;;;17.71;63.04;101273.50;6264993;28;20224;-47
2021/09/09 04:23:41;;;;;;;14.95;13.55;;;;;;;17.58;63.60;101269.53;6266378;28;20327;-48
2021/09/09 04:27:03;;;;;;;15.50;14.02;;;;;;;17.68;63.11;101268.34;6260074;28;20244;-51
2021/09/09 04:30:25;;;;;;;15.52;14.13;;;;;;;17.64;63.53;101272.84;6259241;28;20557;-50
2021/09/09 04:33:46;;;;;;;23.87;21.60;;;;;;;17.82;62.37;101260.88;6265092;28;20531;-51
2021/09/09 04:37:07;;;;;;;29.27;26.80;;;;;;;17.62;63.29;101264.16;6263012;28;20227;-51
2021/09/09 04:40:30;;;;;;;21.67;19.70;;;;;;;17.72;62.87;101262.09;6263302;28;20328;-49
2021/09/09 04:43:51;;;;;;;17.98;16.38;;;;;;;17.89;62.33;101262.44;6260669;28;20541;-47
2021/09/09 04:47:13;;;;;;;16.02;14.55;;;;;;;17.80;62.53;101264.47;6264354;28;20227;-49
2021/09/09 04:50:34;;;;;;;17.98;14.07;;;;;;;17.49;63.86;101255.75;6263094;28;20262;-49
2021/09/09 04:53:55;;;;;;;17.25;15.25;;;;;;;17.76;62.74;101250.53;6265086;28;20236;-50
2021/09/09 04:57:15;;;;;;;14.38;12.95;;;;;;;17.93;61.98;101257.03;6262940;28;20247;-50
2021/09/09 05:00:36;;;;;;;16.07;14.67;;;;;;;17.82;62.33;101258.25;6258415;28;20232;-50
2021/09/09 05:03:59;;;;;;;19.08;17.27;;;;;;;17.76;62.51;101250.53;6263603;28;20223;-52
2021/09/09 05:07:20;;;;;;;19.73;17.83;;;;;;;17.42;63.72;101251.56;6261528;28;20306;-53
2021/09/09 05:10:41;;;;;;;60.10;54.47;;;;;;;17.32;64.00;101252.78;6260584;28;20243;-48
2021/09/09 05:14:02;;;;;;;22.52;20.42;;;;;;;17.46;63.41;101245.31;6263198;28;20215;-52
2021/09/09 05:17:24;;;;;;;16.97;15.33;;;;;;;17.50;63.48;101254.81;6256178;28;20224;-47
2021/09/09 05:20:46;;;;;;;17.05;15.35;;;;;;;17.50;63.53;101246.94;6263505;28;20603;-48
2021/09/09 05:24:06;;;;;;;17.85;16.23;;;;;;;17.78;63.05;101243.44;6260500;28;20239;-49
2021/09/09 05:27:27;;;;;;;54.53;49.65;;;;;;;17.78;62.82;101243.44;6251300;28;20235;-46
2021/09/09 05:30:48;;;;;;;43.50;39.67;;;;;;;17.90;62.42;101232.53;6249978;28;20330;-51
2021/09/09 05:34:09;;;;;;;18.42;16.58;;;;;;;17.87;62.33;101235.28;6258324;28;20231;-50
2021/09/09 05:37:31;;;;;;;19.52;17.73;;;;;;;17.87;62.82;101232.66;6257806;28;20230;-50
2021/09/09 05:40:52;;;;;;;17.48;15.65;;;;;;;17.90;62.39;101226.41;6252867;28;20227;-48
2021/09/09 05:44:13;;;;;;;17.98;16.10;;;;;;;18.14;61.56;101227.34;6262103;28;20242;-48
2021/09/09 05:47:34;;;;;;;19.30;17.25;;;;;;;18.05;61.93;101225.03;6250085;28;20231;-49
2021/09/09 05:50:55;;;;;;;18.20;16.08;;;;;;;18.08;62.02;101220.50;6259069;28;20239;-49
2021/09/09 05:54:17;;;;;;;19.67;16.73;;;;;;;18.20;61.84;101223.63;6241456;28;20227;-51
2021/09/09 05:57:39;;;;;;;19.13;17.27;;;;;;;18.42;60.67;101223.78;6258761;28;20673;-50
2021/09/09 06:01:00;;;;;;;18.83;16.92;;;;;;;18.33;61.38;101218.81;6245353;28;20280;-47
2021/09/09 06:04:22;;;;;;;19.02;17.02;;;;;;;18.16;61.87;101222.88;6259715;28;20311;-44
2021/09/09 06:07:43;;;;;;;17.77;15.98;;;;;;;18.33;61.44;101221.44;6261137;28;20243;-50
2021/09/09 06:11:06;;;;;;;16.92;15.23;;;;;;;18.46;61.04;101220.09;6259406;28;20235;-51
2021/09/09 06:14:28;;;;;;;17.98;16.23;;;;;;;18.45;61.01;101219.22;6249209;28;20224;-48
2021/09/09 06:17:49;;;;;;;16.88;15.18;;;;;;;18.59;60.85;101210.84;6263293;28;20227;-48
2021/09/09 06:21:10;;;;;;;18.55;16.95;;;;;;;18.59;60.56;101208.22;6244226;28;20236;-51
2021/09/09 06:24:31;;;;;;;18.20;16.38;;;;;;;18.46;60.54;101209.56;6248573;28;20580;-48
2021/09/09 06:27:53;;;;;;;17.08;15.52;;;;;;;18.84;60.00;101215.22;6256939;28;20648;-48
2021/09/09 06:31:15;;;;;;;22.15;17.25;;;;;;;18.89;59.73;101215.94;6258831;28;20240;-51
2021/09/09 06:34:36;;;;;;;20.75;15.73;;;;;;;18.91;59.48;101211.44;6258978;28;20234;-48
2021/09/09 06:37:57;;;;;;;21.17;18.98;;;;;;;19.03;59.62;101204.84;6262181;28;20224;-49
2021/09/09 06:41:18;;;;;;;42.30;22.85;;;;;;;19.20;59.03;101212.97;6260817;28;20227;-51
2021/09/09 06:44:40;;;;;;;28.15;20.17;;;;;;;19.45;58.42;101218.16;6261812;28;20322;-46
2021/09/09 06:48:03;;;;;;;19.58;17.52;;;;;;;19.42;58.14;101218.25;6258784;28;20350;-47
2021/09/09 06:51:24;;;;;;;18.08;16.42;;;;;;;19.43;58.36;101217.34;6264304;28;20227;-51
2021/09/09 06:54:45;;;;;;;19.13;17.27;;;;;;;19.22;58.48;101219.06;6267724;28;20232;-49
2021/09/09 06:58:06;;;;;;;18.40;16.48;;;;;;;19.28;58.49;101220.59;6263770;28;20235;-48
2021/09/09 07:01:28;;;;;;;17.92;16.23;;;;;;;19.53;57.75;101217.00;6257733;28;20230;-50
2021/09/09 07:04:49;;;;;;;16.75;15.27;;;;;;;19.64;57.68;101218.28;6261092;28;20219;-47
2021/09/09 07:08:10;;;;;;;15.52;14.02;;;;;;;19.82;56.66;101216.69;6251862;28;20769;-45
2021/09/09 07:11:31;;;;;;;16.15;14.50;;;;;;;19.80;57.11;101204.47;6258493;28;20236;-50
2021/09/09 07:14:52;;;;;;;17.40;15.70;;;;;;;19.94;56.34;101209.19;6262048;28;20236;-49
2021/09/09 07:18:15;;;;;;;15.38;14.00;;;;;;;20.02;56.06;101207.06;6249068;28;20231;-50
2021/09/09 07:21:36;;;;;;;17.33;15.65;;;;;;;20.35;55.74;101206.53;6253947;28;20224;-50
2021/09/09 07:24:57;;;;;;;15.25;13.95;;;;;;;20.66;54.83;101211.34;6260764;28;20224;-52
2021/09/09 07:28:18;;;;;;;16.45;14.73;;;;;;;20.60;54.38;101215.13;6259615;28;20224;-48
2021/09/09 07:31:39;;;;;;;14.75;13.45;;;;;;;20.94;53.78;101212.78;6262078;28;20224;-49
2021/09/09 07:35:01;;;;;;;16.58;15.02;;;;;;;20.73;53.79;101210.16;6247698;28;20231;-48
2021/09/09 07:38:22;;;;;;;16.10;14.70;;;;;;;20.72;53.67;101213.72;6253897;28;20231;-47
2021/09/09 07:41:43;;;;;;;14.23;12.88;;;;;;;20.58;53.59;101209.03;6259882;28;20240;-46
2021/09/09 07:45:05;;;;;;;14.68;13.45;;;;;;;20.53;53.63;101203.09;6259093;28;20232;-50
2021/09/09 07:48:26;;;;;;;14.35;13.05;;;;;;;20.30;54.04;101200.59;6256569;28;20315;-52
2021/09/09 07:51:49;;;;;;;13.85;12.55;;;;;;;20.66;53.33;101200.78;6260596;28;20235;-53
2021/09/09 07:55:11;;;;;;;16.33;14.18;;;;;;;20.82;53.09;101203.56;6245911;28;20236;-51
2021/09/09 07:58:32;;;;;;;15.38;13.82;;;;;;;20.90;52.42;101201.47;6258133;28;20255;-50
2021/09/09 08:01:53;;;;;;;15.45;13.93;;;;;;;20.53;53.37;101203.09;6252476;28;20228;-49
2021/09/09 08:05:14;;;;;;;12.75;11.48;;;;;;;21.07;52.18;101202.44;6261301;28;20224;-48
2021/09/09 08:08:36;;;;;;;14.90;12.38;;;;;;;21.26;51.71;101198.00;6248314;28;20232;-51
2021/09/09 08:11:57;;;;;;;13.50;12.23;;;;;;;21.06;52.03;101206.03;6257121;28;20263;-49
2021/09/09 08:15:18;;;;;;;13.02;11.80;;;;;;;21.23;52.18;101206.97;6255412;28;20620;-50
2021/09/09 08:18:39;;;;;;;13.60;12.20;;;;;;;21.10;51.96;101212.91;6255826;28;20223;-50
2021/09/09 08:22:00;;;;;;;13.88;12.57;;;;;;;21.55;50.97;101209.00;6250578;28;20232;-47
2021/09/09 08:25:23;;;;;;;13.10;11.48;;;;;;;22.03;49.92;101199.56;6255060;28;20949;-46
2021/09/09 08:28:44;;;;;;;13.98;12.30;;;;;;;22.40;50.05;101203.84;6248524;28;20231;-46
2021/09/09 08:32:05;;;;;;;12.18;11.05;;;;;;;22.52;49.55;101202.31;6233773;28;20236;-50
2021/09/09 08:35:26;;;;;;;13.40;12.07;;;;;;;22.36;49.37;101210.25;6246588;28;20225;-52
2021/09/09 08:38:47;;;;;;;13.55;12.15;;;;;;;22.70;48.15;101203.16;6246529;28;20247;-49
2021/09/09 08:42:12;;;;;;;13.00;11.88;;;;;;;22.03;50.23;101208.34;6237951;28;20225;-47
2021/09/09 08:45:33;;;;;;;13.88;12.43;;;;;;;22.67;48.49;101208.63;6229982;28;20306;-50
2021/09/09 08:48:55;;;;;;;14.70;13.27;;;;;;;22.06;50.20;101203.84;6231700;28;20231;-47
2021/09/09 08:52:17;;;;;;;14.70;11.57;;;;;;;22.33;49.65;101196.28;6243861;28;20497;-48
2021/09/09 08:55:38;;;;;;;13.35;11.18;;;;;;;22.92;48.62;101181.59;6240011;28;20244;-48
2021/09/09 08:59:00;;;;;;;12.57;11.25;;;;;;;22.74;48.48;101193.19;6246346;28;20232;-49
2021/09/09 09:02:21;;;;;;;14.48;13.02;;;;;;;22.86;47.54;101186.41;6243439;28;20247;-46
2021/09/09 09:05:42;;;;;;;12.40;10.40;;;;;;;23.13;47.86;101182.25;6247822;28;20584;-52
2021/09/09 09:09:08;;;;;;;12.73;11.52;;;;;;;23.44;47.49;101180.50;6251813;28;20216;-47
2021/09/09 09:12:39;;;;;;;13.30;11.25;;;;;;;24.13;46.26;101173.78;6259212;28;20267;-46
2021/09/09 09:16:01;;;;;;;13.15;11.23;;;;;;;23.68;46.11;101167.56;6250180;28;20247;-48
2021/09/09 09:19:24;;;;;;;11.35;10.07;;;;;;;24.21;46.52;101159.19;6259082;28;20223;-46
2021/09/09 09:22:45;;;;;;;11.18;10.05;;;;;;;24.21;45.57;101153.84;6263313;28;20228;-45
2021/09/09 09:26:06;;;;;;;13.00;10.15;;;;;;;23.57;46.73;101156.72;6261329;28;20219;-45
2021/09/09 09:29:28;;;;;;;11.40;10.27;;;;;;;24.02;46.16;101156.75;6260967;28;20235;-46
2021/09/09 09:32:51;;;;;;;10.75;9.70;;;;;;;24.15;45.04;101150.59;6259743;28;20232;-47
2021/09/09 09:36:24;;;;;;;11.65;10.45;;;;;;;24.17;44.52;101158.50;6265528;28;25309;-52
2021/09/09 09:39:46;;;;;;;10.90;9.88;;;;;;;24.22;44.06;101155.56;6259496;28;20231;-47
2021/09/09 09:43:09;;;;;;;11.65;10.50;;;;;;;24.26;44.07;101147.31;6255866;28;20224;-53
2021/09/09 09:46:32;;;;;;;11.50;10.32;;;;;;;24.04;43.60;101142.44;6254673;28;20609;-45
2021/09/09 09:49:55;;;;;;;11.50;10.32;;;;;;;24.78;42.85;101151.22;6261430;28;20219;-48
2021/09/09 09:53:17;;;;;;;10.35;9.25;;;;;;;24.39;42.08;101147.41;6264990;28;20239;-51
2021/09/09 09:56:39;;;;;;;16.05;8.38;;;;;;;24.89;41.11;101150.50;6261779;28;20223;-48
2021/09/09 10:00:00;;;;;;;10.30;8.80;;;;;;;24.78;40.37;101143.22;6257987;28;20227;-50
2021/09/09 10:03:22;;;;;;;10.38;7.80;;;;;;;25.39;39.95;101135.72;6257360;28;20617;-51
2021/09/09 10:06:47;;;;;;;9.80;7.63;;;;;;;25.83;37.95;101136.38;6250444;28;20227;-47
2021/09/09 10:10:09;;;;;;;8.82;7.93;;;;;;;25.49;36.92;101127.97;6247362;28;20227;-48
2021/09/09 10:13:30;;;;;;;20.23;8.77;;;;;;;25.48;37.60;101120.94;6256641;28;20310;-47
2021/09/09 10:16:54;;;;;;;9.02;8.13;;;;;;;25.45;37.60;101122.00;6256052;28;20620;-49
2021/09/09 10:20:40;;;;;;;7.97;7.35;;;;;;;25.86;36.01;101120.13;6258441;28;20243;-50
2021/09/09 10:24:12;;;;;;;10.20;8.63;;;;;;;26.17;35.66;101118.06;6259041;28;20322;-49
2021/09/09 10:27:42;;;;;;;9.70;7.25;;;;;;;26.51;35.94;101111.19;6259462;28;20239;-49
2021/09/09 10:31:05;;;;;;;8.30;7.50;;;;;;;26.40;35.01;101103.06;6256039;28;20239;-53
2021/09/09 10:34:27;;;;;;;9.63;6.88;;;;;;;26.27;35.37;101103.13;6256494;28;20225;-47
2021/09/09 10:37:50;;;;;;;11.27;7.28;;;;;;;27.35;34.30;101112.19;6259182;28;20507;-49
2021/09/09 10:41:28;;;;;;;10.52;8.60;;;;;;;26.49;34.59;101113.94;6247298;28;20232;-50
2021/09/09 10:44:49;;;;;;;7.50;6.32;;;;;;;27.18;34.22;101108.09;6259463;28;20239;-51
2021/09/09 10:48:19;;;;;;;7.55;6.93;;;;;;;26.51;33.04;101109.34;6256565;28;21128;-48
2021/09/09 10:52:05;;;;;;;8.00;7.18;;;;;;;26.96;33.31;101100.81;6257766;28;20227;-49
2021/09/09 10:55:28;;;;;;;8.63;6.72;;;;;;;28.04;31.54;101098.91;6260483;28;20230;-50
2021/09/09 10:59:09;;;;;;;9.05;8.02;;;;;;;27.78;31.49;101100.03;6251024;28;20251;-51
2021/09/09 11:02:31;;;;;;;9.02;6.93;;;;;;;29.25;30.65;101090.97;6254708;28;20224;-47
2021/09/09 11:05:52;;;;;;;8.45;7.10;;;;;;;30.95;26.77;101082.47;6258561;28;20231;-49
2021/09/09 11:09:14;;;;;;;8.68;8.00;;;;;;;32.99;24.50;101093.63;6257895;28;20616;-47
2021/09/09 11:12:36;;;;;;;10.43;9.38;;;;;;;35.80;21.27;101083.84;6258225;28;20232;-47
2021/09/09 11:15:59;;;;;;;7.70;7.07;;;;;;;37.78;18.77;101081.63;6250169;28;20522;-50
2021/09/09 11:19:22;;;;;;;9.07;8.10;;;;;;;34.17;23.12;101080.72;6255924;28;20323;-47
2021/09/09 11:22:43;;;;;;;8.45;7.65;;;;;;;36.51;20.78;101086.63;6259134;28;20511;-48
2021/09/09 11:26:11;;;;;;;11.45;10.45;;;;;;;36.75;20.45;101072.13;6257203;28;20227;-46
2021/09/09 11:29:32;;;;;;;7.70;7.07;;;;;;;38.16;19.17;101071.53;6244268;28;20231;-50
2021/09/09 11:33:05;;;;;;;8.30;7.50;;;;;;;39.38;17.55;101072.63;6245672;28;20239;-46
2021/09/09 11:36:29;;;;;;;8.32;7.55;;;;;;;38.19;18.72;101060.28;6265029;28;20507;-52
2021/09/09 11:39:49;;;;;;;9.20;8.43;;;;;;;38.65;19.09;101058.31;6262778;28;20240;-50
2021/09/09 11:43:11;;;;;;;11.75;8.35;;;;;;;38.98;18.38;101056.78;6261561;28;20255;-48
2021/09/09 11:46:33;;;;;;;9.75;8.27;;;;;;;37.73;19.68;101063.19;6262180;28;20228;-47
2021/09/09 11:50:01;;;;;;;9.98;8.98;;;;;;;38.93;18.53;101061.94;6259944;28;20296;-47
2021/09/09 11:53:23;;;;;;;8.25;7.43;;;;;;;38.96;18.55;101055.25;6263307;28;20620;-53
2021/09/09 11:56:45;;;;;;;8.27;7.40;;;;;;;39.82;17.61;101057.81;6264991;28;20234;-52
2021/09/09 12:00:07;;;;;;;10.55;7.93;;;;;;;39.48;18.29;101053.22;6260803;28;20606;-49
2021/09/09 12:03:29;;;;;;;7.30;6.80;;;;;;;40.82;17.32;101052.81;6250404;28;20236;-46
2021/09/09 12:06:52;;;;;;;9.07;8.27;;;;;;;41.71;16.45;101048.78;6248704;28;20638;-52
2021/09/09 12:10:20;;;;;;;8.13;7.32;;;;;;;40.28;16.87;101050.94;6241943;28;22145;-54
2021/09/09 12:13:44;;;;;;;8.25;7.65;;;;;;;39.97;16.97;101044.09;6250148;28;20235;-53
2021/09/09 12:17:10;;;;;;;8.65;7.78;;;;;;;39.71;18.02;101033.88;6245948;28;20319;-53
2021/09/09 12:20:33;;;;;;;7.55;6.82;;;;;;;39.85;17.33;101034.78;6237750;28;20228;-51
2021/09/09 12:24:05;;;;;;;14.43;13.45;;;;;;;40.96;16.66;101036.44;6244306;28;20221;-48
2021/09/09 12:27:26;;;;;;;10.80;10.00;;;;;;;41.07;16.69;101024.88;6246817;28;20236;-50
2021/09/09 12:30:49;;;;;;;7.35;6.85;;;;;;;38.73;18.34;101025.53;6247898;28;20239;-49
2021/09/09 12:34:12;;;;;;;8.43;7.70;;;;;;;42.58;15.15;101022.97;6251826;28;20228;-52
2021/09/09 12:37:33;;;;;;;8.90;8.18;;;;;;;39.69;17.54;101012.28;6256709;28;20223;-47
2021/09/09 12:40:55;;;;;;;7.85;7.10;;;;;;;41.82;14.77;101013.63;6261072;28;20232;-49
2021/09/09 12:44:19;;;;;;;7.93;7.30;;;;;;;41.30;15.68;101008.09;6248746;28;20232;-45
2021/09/09 12:47:39;;;;;;;8.02;7.18;;;;;;;41.52;15.83;101005.91;6259344;28;20240;-46
2021/09/09 12:51:03;;;;;;;9.27;8.30;;;;;;;42.94;14.39;100999.53;6259673;28;20259;-48
2021/09/09 12:54:24;;;;;;;9.80;8.13;;;;;;;43.36;14.24;101005.28;6260879;28;20227;-47
2021/09/09 12:57:47;;;;;;;7.65;6.95;;;;;;;41.16;16.24;101015.44;6257648;28;20239;-47
2021/09/09 13:01:07;;;;;;;9.38;8.52;;;;;;;41.53;15.51;100996.69;6257917;28;20227;-48
2021/09/09 13:04:29;;;;;;;12.75;11.75;;;;;;;43.70;13.92;101000.28;6261450;28;20826;-47
2021/09/09 13:07:50;;;;;;;8.38;7.65;;;;;;;43.12;14.19;100998.75;6256643;28;20235;-52
2021/09/09 13:11:11;;;;;;;7.85;7.15;;;;;;;39.78;16.48;100996.59;6256547;28;20239;-48
2021/09/09 13:14:34;;;;;;;7.28;6.68;;;;;;;39.44;16.68;101000.19;6250780;28;20621;-49
2021/09/09 13:17:55;;;;;;;7.38;6.85;;;;;;;40.74;16.07;100992.94;6259108;28;20817;-51
2021/09/09 13:21:20;;;;;;;7.30;6.70;;;;;;;42.39;14.84;100986.44;6255404;28;20228;-49
2021/09/09 13:24:41;;;;;;;8.90;7.97;;;;;;;41.44;14.98;100981.56;6240395;28;20879;-47
2021/09/09 13:28:04;;;;;;;13.80;12.57;;;;;;;42.63;13.79;100984.81;6252157;28;20613;-45
2021/09/09 13:31:27;;;;;;;7.18;6.63;;;;;;;39.82;15.51;100977.94;6256423;28;20318;-51
2021/09/09 13:34:48;;;;;;;7.03;6.30;;;;;;;39.53;15.14;100982.63;6241318;28;20235;-48
2021/09/09 13:38:09;;;;;;;6.30;5.78;;;;;;;39.10;15.14;100974.56;6251492;28;20814;-50
2021/09/09 13:41:30;;;;;;;7.10;5.88;;;;;;;38.81;15.92;100976.41;6247595;28;20668;-46
2021/09/09 13:44:51;;;;;;;6.90;6.30;;;;;;;36.43;17.47;100985.34;6256563;28;20592;-49
2021/09/09 13:48:13;;;;;;;7.20;6.55;;;;;;;37.83;16.54;100973.22;6261666;28;20250;-49
2021/09/09 13:51:34;;;;;;;6.70;6.10;;;;;;;39.26;15.15;100967.97;6260604;28;20231;-47
2021/09/09 13:54:56;;;;;;;8.38;6.55;;;;;;;38.80;15.33;100970.13;6255581;28;20605;-49
2021/09/09 13:58:16;;;;;;;7.72;7.13;;;;;;;40.31;15.06;100971.44;6257250;28;20247;-47
2021/09/09 14:01:38;;;;;;;10.27;9.25;;;;;;;39.86;14.47;100966.47;6251250;28;20228;-47
2021/09/09 14:05:00;;;;;;;8.60;5.93;;;;;;;38.61;14.90;100968.06;6251155;28;20692;-51
2021/09/09 14:08:21;;;;;;;6.50;5.88;;;;;;;36.87;17.40;100966.75;6245089;28;20232;-45
2021/09/09 14:11:42;;;;;;;7.15;6.53;;;;;;;38.73;15.48;100960.22;6257003;28;20236;-52
2021/09/09 14:15:03;;;;;;;6.95;6.30;;;;;;;37.74;17.33;100963.50;6250509;28;20235;-48
2021/09/09 14:18:24;;;;;;;6.43;5.80;;;;;;;38.98;15.79;100961.50;6247727;28;20227;-51
2021/09/09 14:21:47;;;;;;;6.22;5.82;;;;;;;38.65;16.60;100954.94;6249179;28;20232;-51
2021/09/09 14:25:10;;;;;;;7.00;6.05;;;;;;;39.04;16.86;100953.59;6246156;28;20237;-49
2021/09/09 14:28:31;;;;;;;8.07;6.93;;;;;;;36.39;18.13;100950.63;6246743;28;20310;-51
2021/09/09 14:31:52;;;;;;;7.00;6.40;;;;;;;35.43;19.11;100945.28;6246684;28;20240;-50
2021/09/09 14:35:14;;;;;;;6.35;5.85;;;;;;;35.41;18.84;100944.63;6251727;28;20235;-51
2021/09/09 14:38:36;;;;;;;7.82;5.90;;;;;;;35.53;20.21;100946.97;6256830;28;20227;-49
2021/09/09 14:41:57;;;;;;;6.82;6.22;;;;;;;35.64;20.28;100949.31;6247236;28;20235;-51
2021/09/09 14:45:18;;;;;;;7.32;6.68;;;;;;;35.97;20.18;100954.59;6251455;28;20232;-49
2021/09/09 14:48:39;;;;;;;7.35;6.65;;;;;;;33.89;21.04;100953.97;6249006;28;20255;-50
2021/09/09 14:52:00;;;;;;;6.75;5.88;;;;;;;33.91;22.06;100957.34;6256461;28;20763;-47
2021/09/09 14:55:23;;;;;;;12.13;6.40;;;;;;;32.29;22.76;100959.47;6252789;28;20342;-50
2021/09/09 14:58:45;;;;;;;7.40;6.80;;;;;;;31.69;23.42;100953.69;6250829;28;20235;-47
2021/09/09 15:02:07;;;;;;;10.02;7.13;;;;;;;32.92;24.39;100939.69;6255915;28;20307;-47
2021/09/09 15:05:28;;;;;;;6.78;6.13;;;;;;;33.24;22.66;100937.41;6262356;28;20307;-51
2021/09/09 15:08:48;;;;;;;6.97;6.38;;;;;;;33.50;23.21;100938.22;6264820;28;20224;-45
2021/09/09 15:12:11;;;;;;;9.35;8.63;;;;;;;33.79;23.15;100933.47;6263727;28;20502;-49
2021/09/09 15:15:32;;;;;;;7.32;6.72;;;;;;;32.79;23.24;100928.47;6262251;28;20332;-45
2021/09/09 15:18:53;;;;;;;9.52;8.60;;;;;;;32.89;23.11;100928.38;6261500;28;20689;-46
2021/09/09 15:22:14;;;;;;;14.57;13.18;;;;;;;33.03;24.18;100925.09;6267024;28;20259;-50
2021/09/09 15:25:35;;;;;;;10.02;9.20;;;;;;;32.79;23.03;100928.47;6249530;28;20254;-49